createdAt,value
2019-06-20T00:00:21.471Z,19.5
2019-06-20T00:00:57.451Z,19.5
2019-06-20T00:01:33.426Z,19.4
2019-06-20T00:02:09.393Z,19.6
2019-06-20T00:02:45.478Z,19.5
2019-06-20T00:03:21.461Z,19.6
2019-06-20T00:03:57.449Z,19.6
2019-06-20T00:04:33.374Z,19.6
2019-06-20T00:05:09.471Z,19.5
2019-06-20T00:05:45.459Z,19.6
2019-06-20T00:06:21.434Z,19.7
2019-06-20T00:06:57.384Z,19.6
2019-06-20T00:07:33.467Z,19.7
2019-06-20T00:08:09.450Z,19.8
2019-06-20T00:08:45.412Z,19.7
2019-06-20T00:09:21.501Z,19.8
2019-06-20T00:09:57.466Z,19.8
2019-06-20T00:10:33.431Z,19.7
2019-06-20T00:11:09.414Z,19.7
2019-06-20T00:11:45.364Z,19.8
2019-06-20T00:12:21.460Z,19.7
2019-06-20T00:13:01.120Z,19.6
2019-06-20T00:13:33.411Z,19.7
2019-06-20T00:14:09.365Z,19.7
2019-06-20T00:14:45.481Z,19.7
2019-06-20T00:15:21.408Z,19.6
2019-06-20T00:15:57.387Z,19.6
2019-06-20T00:16:33.498Z,19.6
2019-06-20T00:17:09.433Z,19.6
2019-06-20T00:17:45.427Z,19.6
2019-06-20T00:18:21.393Z,19.6
2019-06-20T00:18:57.479Z,19.5
2019-06-20T00:19:33.461Z,19.5
2019-06-20T00:20:09.457Z,19.4
2019-06-20T00:20:45.401Z,19.4
2019-06-20T00:21:21.474Z,19.4
2019-06-20T00:21:57.502Z,19.3
2019-06-20T00:22:33.423Z,19.2
2019-06-20T00:23:09.411Z,19.3
2019-06-20T00:23:45.480Z,19.3
2019-06-20T00:24:21.465Z,19.2
2019-06-20T00:24:57.457Z,19.4
2019-06-20T00:25:33.421Z,19.4
2019-06-20T00:26:09.496Z,19.3
2019-06-20T00:26:45.448Z,19.4
2019-06-20T00:27:21.431Z,19.4
2019-06-20T00:27:57.388Z,19.4
2019-06-20T00:28:33.500Z,19.4
2019-06-20T00:29:09.445Z,19.3
2019-06-20T00:29:45.472Z,19.3
2019-06-20T00:30:21.403Z,19.2
2019-06-20T00:30:57.479Z,19.4
2019-06-20T00:31:33.432Z,19.3
2019-06-20T00:32:09.419Z,19.2
2019-06-20T00:32:45.402Z,19.3
2019-06-20T00:33:21.445Z,19.1
2019-06-20T00:33:57.422Z,19.2
2019-06-20T00:34:33.405Z,19.1
2019-06-20T00:35:09.390Z,19.2
2019-06-20T00:35:45.467Z,19.1
2019-06-20T00:36:21.515Z,19.1
2019-06-20T00:36:57.402Z,19.1
2019-06-20T00:37:33.369Z,19
2019-06-20T00:38:09.453Z,19
2019-06-20T00:38:45.444Z,19
2019-06-20T00:39:21.399Z,19
2019-06-20T00:39:57.360Z,18.9
2019-06-20T00:40:33.524Z,18.9
2019-06-20T00:41:09.508Z,18.8
2019-06-20T00:41:45.394Z,18.9
2019-06-20T00:42:21.366Z,18.9
2019-06-20T00:42:57.455Z,18.8
2019-06-20T00:43:33.418Z,18.7
2019-06-20T00:44:09.389Z,18.7
2019-06-20T00:44:45.388Z,18.6
2019-06-20T00:45:21.465Z,18.7
2019-06-20T00:45:57.462Z,18.6
2019-06-20T00:46:33.392Z,18.6
2019-06-20T00:47:09.354Z,18.6
2019-06-20T00:47:45.492Z,18.6
2019-06-20T00:48:21.412Z,18.6
2019-06-20T00:48:57.395Z,18.5
2019-06-20T00:49:33.351Z,18.6
2019-06-20T00:50:09.444Z,18.6
2019-06-20T00:50:45.416Z,18.5
2019-06-20T00:51:21.410Z,18.6
2019-06-20T00:51:57.362Z,18.6
2019-06-20T00:52:33.461Z,18.5
2019-06-20T00:53:09.412Z,18.5
2019-06-20T00:53:45.405Z,18.6
2019-06-20T00:54:21.381Z,18.6
2019-06-20T00:54:57.451Z,18.6
2019-06-20T00:55:33.438Z,18.6
2019-06-20T00:56:09.388Z,18.6
2019-06-20T00:56:45.332Z,18.7
2019-06-20T00:57:21.468Z,18.7
2019-06-20T00:57:57.410Z,18.6
2019-06-20T00:58:33.558Z,18.8
2019-06-20T00:59:09.338Z,18.7
2019-06-20T00:59:45.438Z,18.7
2019-06-20T01:00:21.420Z,18.7
2019-06-20T01:00:57.379Z,18.8
2019-06-20T01:01:33.361Z,18.8
2019-06-20T01:02:09.432Z,18.7
2019-06-20T01:02:45.427Z,18.6
2019-06-20T01:03:21.386Z,18.7
2019-06-20T01:03:57.361Z,18.7
2019-06-20T01:04:33.441Z,18.8
2019-06-20T01:05:09.423Z,18.7
2019-06-20T01:05:45.386Z,18.8
2019-06-20T01:06:21.367Z,18.7
2019-06-20T01:06:57.437Z,18.7
2019-06-20T01:07:33.461Z,18.8
2019-06-20T01:08:09.362Z,18.7
2019-06-20T01:08:45.323Z,18.7
2019-06-20T01:09:21.424Z,18.7
2019-06-20T01:09:57.460Z,18.7
2019-06-20T01:10:33.376Z,18.7
2019-06-20T01:11:09.339Z,18.7
2019-06-20T01:11:45.439Z,18.7
2019-06-20T01:12:21.426Z,18.8
2019-06-20T01:12:57.354Z,18.8
2019-06-20T01:13:34.688Z,18.7
2019-06-20T01:14:09.460Z,18.8
2019-06-20T01:14:45.444Z,18.8
2019-06-20T01:15:21.364Z,18.8
2019-06-20T01:15:57.503Z,18.8
2019-06-20T01:16:33.414Z,18.9
2019-06-20T01:17:09.374Z,18.9
2019-06-20T01:17:45.367Z,18.9
2019-06-20T01:18:21.421Z,19
2019-06-20T01:18:57.422Z,18.9
2019-06-20T01:19:33.384Z,19
2019-06-20T01:20:09.369Z,18.9
2019-06-20T01:20:45.454Z,18.9
2019-06-20T01:21:21.424Z,18.9
2019-06-20T01:21:57.400Z,19
2019-06-20T01:22:33.347Z,19
2019-06-20T01:23:09.436Z,19.1
2019-06-20T01:23:45.531Z,19
2019-06-20T01:24:21.397Z,19
2019-06-20T01:24:57.370Z,19.1
2019-06-20T01:25:33.453Z,19.1
2019-06-20T01:26:09.417Z,19.1
2019-06-20T01:26:45.381Z,19.1
2019-06-20T01:27:21.362Z,19.1
2019-06-20T01:27:57.422Z,19.1
2019-06-20T01:28:33.424Z,19.1
2019-06-20T01:29:09.368Z,19.1
2019-06-20T01:29:45.414Z,19
2019-06-20T01:30:21.424Z,19.2
2019-06-20T01:30:57.405Z,19.1
2019-06-20T01:31:33.388Z,19.2
2019-06-20T01:32:09.395Z,19.2
2019-06-20T01:32:45.468Z,19.1
2019-06-20T01:33:21.408Z,19.1
2019-06-20T01:33:57.368Z,19.1
2019-06-20T01:34:33.450Z,19.1
2019-06-20T01:35:09.436Z,19.1
2019-06-20T01:35:57.436Z,19.1
2019-06-20T01:36:57.341Z,19
2019-06-20T01:37:57.397Z,19.1
2019-06-20T01:38:45.365Z,19.1
2019-06-20T01:39:21.350Z,19
2019-06-20T01:39:57.447Z,19
2019-06-20T01:40:45.435Z,19.2
2019-06-20T01:41:21.385Z,19
2019-06-20T01:41:57.364Z,19.1
2019-06-20T01:42:33.325Z,19.1
2019-06-20T01:43:09.439Z,19
2019-06-20T01:43:51.278Z,19.1
2019-06-20T01:44:21.358Z,19.2
2019-06-20T01:44:57.335Z,19.1
2019-06-20T01:45:33.399Z,19.2
2019-06-20T01:46:09.409Z,19.2
2019-06-20T01:46:45.402Z,19.1
2019-06-20T01:47:21.327Z,19.2
2019-06-20T01:47:57.428Z,19.2
2019-06-20T01:48:33.402Z,19.1
2019-06-20T01:49:09.336Z,19.1
2019-06-20T01:49:45.331Z,19.2
2019-06-20T01:50:21.408Z,19.3
2019-06-20T01:50:57.416Z,19.2
2019-06-20T01:51:33.337Z,19.2
2019-06-20T01:52:09.331Z,19.1
2019-06-20T01:52:45.395Z,19.1
2019-06-20T01:53:21.387Z,19.2
2019-06-20T01:53:57.334Z,19.1
2019-06-20T01:54:33.326Z,19.1
2019-06-20T01:55:09.403Z,19.1
2019-06-20T01:55:45.372Z,19.1
2019-06-20T01:56:21.349Z,19.1
2019-06-20T01:56:57.324Z,19
2019-06-20T01:57:33.430Z,19
2019-06-20T01:58:09.384Z,19
2019-06-20T01:58:45.450Z,18.9
2019-06-20T01:59:21.317Z,18.9
2019-06-20T01:59:57.406Z,18.8
2019-06-20T02:00:33.387Z,18.9
2019-06-20T02:01:09.361Z,18.8
2019-06-20T02:01:45.376Z,18.8
2019-06-20T02:02:21.392Z,18.9
2019-06-20T02:02:57.415Z,18.7
2019-06-20T02:03:33.360Z,18.8
2019-06-20T02:04:09.316Z,18.6
2019-06-20T02:04:45.386Z,18.6
2019-06-20T02:05:21.391Z,18.6
2019-06-20T02:05:57.342Z,18.5
2019-06-20T02:06:33.288Z,18.4
2019-06-20T02:07:09.418Z,18.4
2019-06-20T02:07:45.361Z,18.4
2019-06-20T02:08:21.349Z,18.2
2019-06-20T02:08:57.320Z,18.1
2019-06-20T02:09:33.390Z,18.1
2019-06-20T02:10:09.421Z,18.1
2019-06-20T02:10:45.328Z,18
2019-06-20T02:11:21.309Z,17.9
2019-06-20T02:11:57.403Z,18
2019-06-20T02:12:33.371Z,17.7
2019-06-20T02:13:09.317Z,17.8
2019-06-20T02:13:45.305Z,17.7
2019-06-20T02:14:21.397Z,17.7
2019-06-20T02:14:57.345Z,17.7
2019-06-20T02:15:33.332Z,17.6
2019-06-20T02:16:09.413Z,17.6
2019-06-20T02:16:45.434Z,17.6
2019-06-20T02:17:21.348Z,17.6
2019-06-20T02:17:57.322Z,17.5
2019-06-20T02:18:33.452Z,17.5
2019-06-20T02:19:09.409Z,17.6
2019-06-20T02:19:45.366Z,17.5
2019-06-20T02:20:21.317Z,17.5
2019-06-20T02:20:57.399Z,17.5
2019-06-20T02:21:33.385Z,17.5
2019-06-20T02:22:09.352Z,17.5
2019-06-20T02:22:45.309Z,17.5
2019-06-20T02:23:21.426Z,17.6
2019-06-20T02:23:57.371Z,17.6
2019-06-20T02:24:33.354Z,17.6
2019-06-20T02:25:09.316Z,17.5
2019-06-20T02:25:45.401Z,17.6
2019-06-20T02:26:21.380Z,17.6
2019-06-20T02:26:57.345Z,17.6
2019-06-20T02:27:33.339Z,17.5
2019-06-20T02:28:09.402Z,17.5
2019-06-20T02:28:45.387Z,17.5
2019-06-20T02:29:21.345Z,17.7
2019-06-20T02:29:57.309Z,17.7
2019-06-20T02:30:33.389Z,17.7
2019-06-20T02:31:09.373Z,17.7
2019-06-20T02:31:45.344Z,17.7
2019-06-20T02:32:21.351Z,17.7
2019-06-20T02:32:57.387Z,17.6
2019-06-20T02:33:33.361Z,17.6
2019-06-20T02:34:09.362Z,17.6
2019-06-20T02:34:45.315Z,17.6
2019-06-20T02:35:21.388Z,17.8
2019-06-20T02:35:57.390Z,17.7
2019-06-20T02:36:33.338Z,17.6
2019-06-20T02:37:09.390Z,17.7
2019-06-20T02:37:45.405Z,17.7
2019-06-20T02:38:21.392Z,17.6
2019-06-20T02:38:57.338Z,17.6
2019-06-20T02:39:33.308Z,17.7
2019-06-20T02:40:09.396Z,17.6
2019-06-20T02:40:45.369Z,17.6
2019-06-20T02:41:21.344Z,17.6
2019-06-20T02:41:57.288Z,17.6
2019-06-20T02:42:33.382Z,17.6
2019-06-20T02:43:09.346Z,17.6
2019-06-20T02:43:45.324Z,17.5
2019-06-20T02:44:30.881Z,17.6
2019-06-20T02:44:57.381Z,17.5
2019-06-20T02:45:33.369Z,17.6
2019-06-20T02:46:09.306Z,17.6
2019-06-20T02:46:45.287Z,17.5
2019-06-20T02:47:21.391Z,17.4
2019-06-20T02:47:57.345Z,17.6
2019-06-20T02:48:33.307Z,17.6
2019-06-20T02:49:09.352Z,17.5
2019-06-20T02:49:45.377Z,17.4
2019-06-20T02:50:21.365Z,17.6
2019-06-20T02:50:57.332Z,17.5
2019-06-20T02:51:33.294Z,17.5
2019-06-20T02:52:09.452Z,17.4
2019-06-20T02:52:45.345Z,17.5
2019-06-20T02:53:21.318Z,17.5
2019-06-20T02:53:57.275Z,17.6
2019-06-20T02:54:33.379Z,17.5
2019-06-20T02:55:09.374Z,17.6
2019-06-20T02:55:45.329Z,17.5
2019-06-20T02:56:21.268Z,17.6
2019-06-20T02:56:57.363Z,17.6
2019-06-20T02:57:33.323Z,17.6
2019-06-20T02:58:09.298Z,17.6
2019-06-20T02:58:45.266Z,17.7
2019-06-20T02:59:21.374Z,17.8
2019-06-20T02:59:57.329Z,17.6
2019-06-20T03:00:33.448Z,17.6
2019-06-20T03:01:09.280Z,17.7
2019-06-20T03:01:45.369Z,17.7
2019-06-20T03:02:21.329Z,17.8
2019-06-20T03:02:57.310Z,17.7
2019-06-20T03:03:33.286Z,17.8
2019-06-20T03:04:09.365Z,17.6
2019-06-20T03:04:46.056Z,17.7
2019-06-20T03:05:21.296Z,17.6
2019-06-20T03:05:57.273Z,17.6
2019-06-20T03:06:33.338Z,17.7
2019-06-20T03:07:09.330Z,17.7
2019-06-20T03:07:45.305Z,17.7
2019-06-20T03:08:21.275Z,17.6
2019-06-20T03:08:57.356Z,17.6
2019-06-20T03:09:33.371Z,17.6
2019-06-20T03:10:09.306Z,17.7
2019-06-20T03:10:45.259Z,17.7
2019-06-20T03:11:21.341Z,17.6
2019-06-20T03:11:57.308Z,17.7
2019-06-20T03:12:33.281Z,17.6
2019-06-20T03:13:09.954Z,17.7
2019-06-20T03:13:45.357Z,17.7
2019-06-20T03:14:21.363Z,17.7
2019-06-20T03:14:57.280Z,17.6
2019-06-20T03:15:33.370Z,17.7
2019-06-20T03:16:09.340Z,17.6
2019-06-20T03:16:45.341Z,17.6
2019-06-20T03:17:21.289Z,17.4
2019-06-20T03:17:57.357Z,17.5
2019-06-20T03:18:33.347Z,17.6
2019-06-20T03:19:09.347Z,17.6
2019-06-20T03:19:45.298Z,17.5
2019-06-20T03:20:21.372Z,17.5
2019-06-20T03:20:57.355Z,17.5
2019-06-20T03:21:33.316Z,17.5
2019-06-20T03:22:09.298Z,17.5
2019-06-20T03:22:45.367Z,17.5
2019-06-20T03:23:21.335Z,17.5
2019-06-20T03:23:57.319Z,17.5
2019-06-20T03:24:33.289Z,17.5
2019-06-20T03:25:09.355Z,17.4
2019-06-20T03:25:45.342Z,17.4
2019-06-20T03:26:21.296Z,17.4
2019-06-20T03:26:57.277Z,17.3
2019-06-20T03:27:33.364Z,17.4
2019-06-20T03:28:09.330Z,17.4
2019-06-20T03:28:45.304Z,17.4
2019-06-20T03:29:21.323Z,17.4
2019-06-20T03:29:57.363Z,17.4
2019-06-20T03:30:33.332Z,17.5
2019-06-20T03:31:09.292Z,17.4
2019-06-20T03:31:45.269Z,17.3
2019-06-20T03:32:21.369Z,17.4
2019-06-20T03:32:57.353Z,17.4
2019-06-20T03:33:33.418Z,17.3
2019-06-20T03:34:09.295Z,17.4
2019-06-20T03:34:45.350Z,17.4
2019-06-20T03:35:21.341Z,17.3
2019-06-20T03:35:57.282Z,17.3
2019-06-20T03:36:33.273Z,17.4
2019-06-20T03:37:09.349Z,17.3
2019-06-20T03:37:45.321Z,17.2
2019-06-20T03:38:21.287Z,17.2
2019-06-20T03:38:57.242Z,17.2
2019-06-20T03:39:33.410Z,17.1
2019-06-20T03:40:09.319Z,17.2
2019-06-20T03:40:45.285Z,17.2
2019-06-20T03:41:21.255Z,17.1
2019-06-20T03:41:57.347Z,17
2019-06-20T03:42:33.307Z,17
2019-06-20T03:43:09.278Z,17
2019-06-20T03:43:45.269Z,17
2019-06-20T03:44:21.373Z,17
2019-06-20T03:45:02.830Z,17
2019-06-20T03:45:33.272Z,17
2019-06-20T03:46:09.235Z,17.1
2019-06-20T03:46:45.331Z,17.1
2019-06-20T03:47:21.348Z,16.9
2019-06-20T03:47:57.266Z,17
2019-06-20T03:48:33.253Z,17
2019-06-20T03:49:09.345Z,17.1
2019-06-20T03:49:45.300Z,17
2019-06-20T03:50:21.317Z,17.1
2019-06-20T03:50:57.241Z,17.1
2019-06-20T03:51:33.335Z,17
2019-06-20T03:52:09.358Z,17.2
2019-06-20T03:52:45.273Z,17.2
2019-06-20T03:53:21.262Z,17.2
2019-06-20T03:53:57.329Z,17.1
2019-06-20T03:54:33.296Z,17.3
2019-06-20T03:55:09.276Z,17.3
2019-06-20T03:55:45.242Z,17.4
2019-06-20T03:56:21.317Z,17.3
2019-06-20T03:56:57.292Z,17.4
2019-06-20T03:57:33.271Z,17.4
2019-06-20T03:58:09.236Z,17.4
2019-06-20T03:58:45.340Z,17.4
2019-06-20T03:59:21.336Z,17.5
2019-06-20T03:59:57.268Z,17.5
2019-06-20T04:00:33.242Z,17.5
2019-06-20T04:01:09.311Z,17.6
2019-06-20T04:01:46.999Z,17.4
2019-06-20T04:02:21.275Z,17.5
2019-06-20T04:02:57.242Z,17.6
2019-06-20T04:03:33.345Z,17.6
2019-06-20T04:04:09.297Z,17.5
2019-06-20T04:04:45.258Z,17.5
2019-06-20T04:05:21.233Z,17.6
2019-06-20T04:05:57.316Z,17.7
2019-06-20T04:06:33.294Z,17.7
2019-06-20T04:07:09.290Z,17.7
2019-06-20T04:07:45.229Z,17.8
2019-06-20T04:08:21.313Z,17.8
2019-06-20T04:08:57.297Z,17.9
2019-06-20T04:09:33.568Z,17.9
2019-06-20T04:10:09.342Z,17.9
2019-06-20T04:10:45.311Z,18
2019-06-20T04:11:21.295Z,18.1
2019-06-20T04:11:57.262Z,18.1
2019-06-20T04:12:33.351Z,18.2
2019-06-20T04:13:09.316Z,18.3
2019-06-20T04:13:45.284Z,18.3
2019-06-20T04:14:21.262Z,18.5
2019-06-20T04:14:57.335Z,18.5
2019-06-20T04:15:33.352Z,18.6
2019-06-20T04:16:09.278Z,18.7
2019-06-20T04:16:45.282Z,18.8
2019-06-20T04:17:21.322Z,18.8
2019-06-20T04:17:57.303Z,18.9
2019-06-20T04:18:33.274Z,19
2019-06-20T04:19:09.241Z,19.1
2019-06-20T04:19:45.411Z,19.1
2019-06-20T04:20:21.295Z,19.2
2019-06-20T04:20:57.264Z,19.2
2019-06-20T04:21:33.243Z,19.2
2019-06-20T04:22:09.340Z,19.2
2019-06-20T04:22:45.299Z,19.3
2019-06-20T04:23:21.264Z,19.2
2019-06-20T04:23:57.227Z,19.4
2019-06-20T04:24:33.323Z,19.2
2019-06-20T04:25:09.340Z,19.3
2019-06-20T04:25:45.262Z,19.5
2019-06-20T04:26:21.242Z,19.6
2019-06-20T04:26:57.326Z,19.7
2019-06-20T04:27:33.278Z,19.9
2019-06-20T04:28:09.383Z,20.1
2019-06-20T04:28:45.225Z,20.1
2019-06-20T04:29:21.349Z,20.2
2019-06-20T04:29:57.288Z,20.3
2019-06-20T04:30:33.294Z,20.4
2019-06-20T04:31:09.349Z,20.3
2019-06-20T04:31:45.317Z,20.4
2019-06-20T04:32:21.302Z,20.4
2019-06-20T04:32:57.248Z,20.4
2019-06-20T04:33:33.251Z,20.3
2019-06-20T04:34:09.349Z,20.4
2019-06-20T04:34:45.283Z,20.5
2019-06-20T04:35:21.270Z,20.7
2019-06-20T04:35:57.234Z,20.8
2019-06-20T04:36:33.305Z,20.9
2019-06-20T04:37:09.296Z,21.1
2019-06-20T04:37:45.264Z,21.3
2019-06-20T04:38:21.227Z,21.5
2019-06-20T04:38:57.311Z,21.6
2019-06-20T04:39:33.266Z,21.6
2019-06-20T04:40:09.272Z,21.5
2019-06-20T04:40:45.209Z,21.5
2019-06-20T04:41:21.297Z,21.6
2019-06-20T04:41:57.297Z,21.6
2019-06-20T04:42:33.319Z,21.5
2019-06-20T04:43:10.315Z,21.5
2019-06-20T04:43:45.294Z,21.5
2019-06-20T04:44:21.346Z,21.7
2019-06-20T04:44:57.255Z,21.8
2019-06-20T04:45:35.937Z,21.9
2019-06-20T04:46:09.288Z,22
2019-06-20T04:46:45.268Z,22.1
2019-06-20T04:47:21.253Z,22.3
2019-06-20T04:47:57.245Z,22.3
2019-06-20T04:48:33.294Z,22.3
2019-06-20T04:49:10.784Z,22.4
2019-06-20T04:49:45.240Z,22.3
2019-06-20T04:50:21.223Z,22.3
2019-06-20T04:50:57.445Z,22.3
2019-06-20T04:51:33.255Z,22.4
2019-06-20T04:52:09.239Z,22.3
2019-06-20T04:52:45.232Z,22.4
2019-06-20T04:53:21.316Z,22.4
2019-06-20T04:53:57.275Z,22.5
2019-06-20T04:54:33.245Z,22.7
2019-06-20T04:55:09.196Z,22.9
2019-06-20T04:55:45.294Z,23
2019-06-20T04:56:21.273Z,23.3
2019-06-20T04:56:57.226Z,23.3
2019-06-20T04:57:33.195Z,23.5
2019-06-20T04:58:09.344Z,23.6
2019-06-20T04:58:45.278Z,23.7
2019-06-20T04:59:21.226Z,23.8
2019-06-20T04:59:57.205Z,23.7
2019-06-20T05:00:33.290Z,23.9
2019-06-20T05:01:09.317Z,24
2019-06-20T05:01:45.221Z,23.9
2019-06-20T05:02:21.208Z,24
2019-06-20T05:02:57.266Z,24.1
2019-06-20T05:03:33.423Z,24
2019-06-20T05:04:09.255Z,24.1
2019-06-20T05:04:45.222Z,24.1
2019-06-20T05:05:21.264Z,24
2019-06-20T05:05:57.246Z,23.9
2019-06-20T05:06:33.201Z,23.9
2019-06-20T05:07:09.194Z,23.7
2019-06-20T05:07:45.329Z,23.6
2019-06-20T05:08:21.231Z,23.5
2019-06-20T05:08:57.268Z,23.3
2019-06-20T05:09:33.184Z,23.5
2019-06-20T05:10:09.264Z,23.4
2019-06-20T05:10:45.240Z,23.4
2019-06-20T05:11:21.204Z,23.3
2019-06-20T05:11:57.183Z,23.4
2019-06-20T05:12:33.266Z,23.4
2019-06-20T05:13:09.249Z,23.4
2019-06-20T05:13:45.198Z,23.5
2019-06-20T05:14:21.297Z,23.4
2019-06-20T05:14:57.282Z,23.5
2019-06-20T05:15:33.235Z,23.5
2019-06-20T05:16:09.191Z,23.5
2019-06-20T05:16:45.281Z,23.5
2019-06-20T05:17:21.272Z,23.6
2019-06-20T05:17:57.322Z,23.5
2019-06-20T05:18:33.214Z,23.5
2019-06-20T05:19:09.803Z,23.5
2019-06-20T05:19:45.253Z,23.6
2019-06-20T05:20:21.255Z,23.5
2019-06-20T05:20:57.194Z,23.5
2019-06-20T05:21:33.271Z,23.4
2019-06-20T05:22:21.292Z,23.4
2019-06-20T05:22:57.323Z,23.4
2019-06-20T05:23:33.222Z,23.4
2019-06-20T05:24:09.279Z,23.6
2019-06-20T05:24:45.309Z,23.5
2019-06-20T05:25:21.245Z,23.5
2019-06-20T05:25:57.237Z,23.6
2019-06-20T05:26:33.196Z,23.5
2019-06-20T05:27:09.287Z,23.8
2019-06-20T05:27:45.312Z,23.8
2019-06-20T05:28:21.239Z,24
2019-06-20T05:28:57.209Z,24
2019-06-20T05:29:45.313Z,23.9
2019-06-20T05:30:45.214Z,23.7
2019-06-20T05:31:21.207Z,23.5
2019-06-20T05:31:57.286Z,23.7
2019-06-20T05:32:33.236Z,23.6
2019-06-20T05:33:09.230Z,23.8
2019-06-20T05:33:45.259Z,23.8
2019-06-20T05:34:21.271Z,24.1
2019-06-20T05:34:57.243Z,24.1
2019-06-20T05:35:33.287Z,24.2
2019-06-20T05:36:09.189Z,24.2
2019-06-20T05:36:45.270Z,24.2
2019-06-20T05:37:33.271Z,24.4
2019-06-20T05:38:09.269Z,24.5
2019-06-20T05:39:09.275Z,24.5
2019-06-20T05:39:45.270Z,24.4
2019-06-20T05:40:21.208Z,24.5
2019-06-20T05:40:57.175Z,24.6
2019-06-20T05:41:33.270Z,24.6
2019-06-20T05:42:09.228Z,24.7
2019-06-20T05:42:57.232Z,24.7
2019-06-20T05:43:33.185Z,24.7
2019-06-20T05:44:09.206Z,24.7
2019-06-20T05:44:57.233Z,24.6
2019-06-20T05:46:11.106Z,24.5
2019-06-20T05:46:33.160Z,24.3
2019-06-20T05:47:14.070Z,24.4
2019-06-20T05:47:45.228Z,24.4
2019-06-20T05:48:21.201Z,24.3
2019-06-20T05:48:57.175Z,24.3
2019-06-20T05:49:33.285Z,24.3
2019-06-20T05:50:09.221Z,24.3
2019-06-20T05:50:45.199Z,24.6
2019-06-20T05:51:21.164Z,24.5
2019-06-20T05:51:57.265Z,24.8
2019-06-20T05:52:33.226Z,24.8
2019-06-20T05:53:09.247Z,24.8
2019-06-20T05:53:45.151Z,24.7
2019-06-20T05:54:21.282Z,24.9
2019-06-20T05:54:58.017Z,24.8
2019-06-20T05:55:45.236Z,24.4
2019-06-20T05:56:21.206Z,24.3
2019-06-20T05:56:57.200Z,24.1
2019-06-20T05:57:33.243Z,24
2019-06-20T05:58:09.233Z,24.1
2019-06-20T05:58:57.249Z,23.9
2019-06-20T05:59:33.230Z,23.7
2019-06-20T06:00:09.208Z,23.7
2019-06-20T06:00:45.345Z,23.7
2019-06-20T06:01:21.238Z,23.7
2019-06-20T06:01:57.179Z,23.8
2019-06-20T06:02:33.144Z,23.8
2019-06-20T06:03:09.263Z,23.9
2019-06-20T06:03:45.195Z,23.9
2019-06-20T06:04:21.230Z,23.9
2019-06-20T06:04:57.190Z,24
2019-06-20T06:05:33.299Z,23.9
2019-06-20T06:06:09.216Z,23.9
2019-06-20T06:06:45.175Z,24
2019-06-20T06:07:33.169Z,24.1
2019-06-20T06:08:09.189Z,24.1
2019-06-20T06:08:45.257Z,24.2
2019-06-20T06:09:21.243Z,24.3
2019-06-20T06:09:57.208Z,24.2
2019-06-20T06:10:33.162Z,24.3
2019-06-20T06:11:09.224Z,24.4
2019-06-20T06:11:45.197Z,24.6
2019-06-20T06:12:21.158Z,24.7
2019-06-20T06:12:57.128Z,24.8
2019-06-20T06:13:33.230Z,24.9
2019-06-20T06:14:09.209Z,24.7
2019-06-20T06:14:45.215Z,24.5
2019-06-20T06:15:33.198Z,24.5
2019-06-20T06:16:28.074Z,24.5
2019-06-20T06:16:46.139Z,24.6
2019-06-20T06:17:21.404Z,24.6
2019-06-20T06:17:57.160Z,24.7
2019-06-20T06:18:33.252Z,24.8
2019-06-20T06:19:09.252Z,24.8
2019-06-20T06:19:45.227Z,24.9
2019-06-20T06:20:33.188Z,25.2
2019-06-20T06:21:09.160Z,25.2
2019-06-20T06:21:45.260Z,25
2019-06-20T06:22:21.220Z,25.1
2019-06-20T06:23:09.255Z,25.2
2019-06-20T06:23:45.207Z,25.1
2019-06-20T06:24:21.174Z,25.2
2019-06-20T06:24:57.248Z,25.2
2019-06-20T06:25:33.219Z,25.3
2019-06-20T06:26:33.225Z,25.1
2019-06-20T06:27:09.201Z,25.2
2019-06-20T06:27:45.195Z,25.2
2019-06-20T06:28:21.145Z,25.3
2019-06-20T06:28:57.235Z,25.2
2019-06-20T06:29:33.240Z,25.3
2019-06-20T06:30:09.186Z,25.4
2019-06-20T06:30:45.144Z,25.3
2019-06-20T06:31:21.256Z,25.4
2019-06-20T06:31:57.213Z,25.1
2019-06-20T06:32:40.830Z,25.3
2019-06-20T06:33:09.170Z,25.3
2019-06-20T06:33:57.129Z,25.3
2019-06-20T06:34:33.262Z,25.3
2019-06-20T06:35:09.280Z,25.3
2019-06-20T06:35:45.168Z,25.5
2019-06-20T06:37:45.215Z,25.6
2019-06-20T06:38:57.233Z,25.5
2019-06-20T06:39:45.198Z,25.6
2019-06-20T06:40:21.157Z,25.5
2019-06-20T06:41:33.197Z,25.4
2019-06-20T06:42:21.187Z,25.3
2019-06-20T06:42:57.182Z,25.2
2019-06-20T06:43:45.173Z,25.1
2019-06-20T06:44:21.148Z,25.1
2019-06-20T06:44:57.205Z,25
2019-06-20T06:45:33.275Z,25
2019-06-20T06:46:09.186Z,25.1
2019-06-20T06:46:57.730Z,25.2
2019-06-20T06:47:21.235Z,25.1
2019-06-20T06:47:57.187Z,25.1
2019-06-20T06:48:33.160Z,25.1
2019-06-20T06:49:09.125Z,25.1
2019-06-20T06:49:45.235Z,25.1
2019-06-20T06:50:21.186Z,25.2
2019-06-20T06:51:21.214Z,25
2019-06-20T06:51:57.182Z,25
2019-06-20T06:52:33.163Z,25
2019-06-20T06:53:21.201Z,24.9
2019-06-20T06:54:21.195Z,24.8
2019-06-20T06:54:57.163Z,24.7
2019-06-20T06:55:45.183Z,24.6
2019-06-20T06:56:33.221Z,24.5
2019-06-20T06:57:33.196Z,24.3
2019-06-20T06:58:21.184Z,24.2
2019-06-20T06:59:09.168Z,24.1
2019-06-20T07:00:09.211Z,23.9
2019-06-20T07:00:45.233Z,24
2019-06-20T07:01:45.225Z,23.8
2019-06-20T07:02:21.158Z,23.7
2019-06-20T07:02:57.152Z,23.7
2019-06-20T07:03:33.129Z,23.6
2019-06-20T07:04:09.230Z,23.4
2019-06-20T07:04:45.185Z,23.4
2019-06-20T07:05:21.169Z,23.2
2019-06-20T07:05:57.124Z,23.2
2019-06-20T07:06:45.164Z,23
2019-06-20T07:07:21.368Z,23
2019-06-20T07:07:57.185Z,23.1
2019-06-20T07:08:33.128Z,22.9
2019-06-20T07:09:09.107Z,22.9
2019-06-20T07:09:45.219Z,22.9
2019-06-20T07:10:21.177Z,22.7
2019-06-20T07:10:57.116Z,22.9
2019-06-20T07:11:33.118Z,22.7
2019-06-20T07:12:09.194Z,22.8
2019-06-20T07:12:45.178Z,22.6
2019-06-20T07:13:21.140Z,22.6
2019-06-20T07:13:57.206Z,22.6
2019-06-20T07:14:33.196Z,22.5
2019-06-20T07:15:09.209Z,22.5
2019-06-20T07:15:45.159Z,22.5
2019-06-20T07:16:33.148Z,22.5
2019-06-20T07:17:21.194Z,22.4
2019-06-20T07:18:09.132Z,22.2
2019-06-20T07:18:45.212Z,22
2019-06-20T07:19:21.216Z,22
2019-06-20T07:19:57.154Z,21.9
2019-06-20T07:20:33.108Z,21.7
2019-06-20T07:21:09.202Z,21.4
2019-06-20T07:21:45.191Z,21.3
2019-06-20T07:22:21.205Z,21.3
2019-06-20T07:22:57.164Z,21.2
2019-06-20T07:23:45.147Z,21.1
2019-06-20T07:24:21.217Z,21.1
2019-06-20T07:24:57.175Z,20.9
2019-06-20T07:25:45.177Z,20.8
2019-06-20T07:26:21.146Z,20.6
2019-06-20T07:26:57.138Z,20.6
2019-06-20T07:27:45.108Z,20.5
2019-06-20T07:28:21.211Z,20.5
2019-06-20T07:28:57.192Z,20.3
2019-06-20T07:29:33.130Z,20.1
2019-06-20T07:30:09.122Z,20.3
2019-06-20T07:30:45.224Z,20.3
2019-06-20T07:31:21.182Z,20.2
2019-06-20T07:31:57.177Z,20.2
2019-06-20T07:32:33.122Z,20.1
2019-06-20T07:33:09.208Z,20.1
2019-06-20T07:33:45.163Z,19.9
2019-06-20T07:34:21.141Z,20
2019-06-20T07:34:57.103Z,20.1
2019-06-20T07:35:33.189Z,19.9
2019-06-20T07:36:09.157Z,19.9
2019-06-20T07:36:45.198Z,19.9
2019-06-20T07:37:21.145Z,19.8
2019-06-20T07:37:57.207Z,19.8
2019-06-20T07:38:33.167Z,19.8
2019-06-20T07:39:09.120Z,19.7
2019-06-20T07:39:45.092Z,19.6
2019-06-20T07:40:21.188Z,19.6
2019-06-20T07:40:57.160Z,19.5
2019-06-20T07:41:33.160Z,19.4
2019-06-20T07:42:09.111Z,19.4
2019-06-20T07:42:45.204Z,19.4
2019-06-20T07:43:33.177Z,19.5
2019-06-20T07:44:09.164Z,19.2
2019-06-20T07:44:45.125Z,19.2
2019-06-20T07:45:21.106Z,19.3
2019-06-20T07:46:03.415Z,19.2
2019-06-20T07:46:33.147Z,19.2
2019-06-20T07:47:18.300Z,19.2
2019-06-20T07:47:45.125Z,19.2
2019-06-20T07:48:21.215Z,19.2
2019-06-20T07:48:57.176Z,19.2
2019-06-20T07:49:33.137Z,19.2
2019-06-20T07:50:09.082Z,19.3
2019-06-20T07:50:45.179Z,19.2
2019-06-20T07:51:21.143Z,19.3
2019-06-20T07:51:57.129Z,19.2
2019-06-20T07:52:33.075Z,19.2
2019-06-20T07:53:09.186Z,19.2
2019-06-20T07:53:45.144Z,19.2
2019-06-20T07:54:21.103Z,19.2
2019-06-20T07:54:57.087Z,19.2
2019-06-20T07:55:33.174Z,19.3
2019-06-20T07:56:09.851Z,19.3
2019-06-20T07:56:45.135Z,19.3
2019-06-20T07:57:21.083Z,19.3
2019-06-20T07:57:57.160Z,19.3
2019-06-20T07:58:33.202Z,19.3
2019-06-20T07:59:09.101Z,19.5
2019-06-20T07:59:45.060Z,19.4
2019-06-20T08:00:21.167Z,19.6
2019-06-20T08:00:57.147Z,19.5
2019-06-20T08:01:33.101Z,19.5
2019-06-20T08:02:09.070Z,19.7
2019-06-20T08:02:45.197Z,19.8
2019-06-20T08:03:33.180Z,20
2019-06-20T08:04:09.118Z,20
2019-06-20T08:04:45.106Z,19.9
2019-06-20T08:05:21.088Z,20.1
2019-06-20T08:05:57.245Z,20.1
2019-06-20T08:06:33.124Z,20.2
2019-06-20T08:07:09.099Z,20.3
2019-06-20T08:07:45.056Z,20.3
2019-06-20T08:08:21.190Z,20.5
2019-06-20T08:09:09.169Z,20.5
2019-06-20T08:09:45.826Z,20.6
2019-06-20T08:10:33.120Z,20.6
2019-06-20T08:11:09.114Z,20.5
2019-06-20T08:11:57.096Z,20.6
2019-06-20T08:12:33.071Z,20.5
2019-06-20T08:13:09.148Z,20.6
2019-06-20T08:13:45.148Z,20.6
2019-06-20T08:14:21.242Z,20.6
2019-06-20T08:14:57.487Z,20.6
2019-06-20T08:15:57.095Z,20.7